createdAt,value
2018-02-04T00:00:35.355Z,0
2018-02-04T00:01:15.770Z,0
2018-02-04T00:01:56.330Z,0
2018-02-04T00:02:37.520Z,0
2018-02-04T00:03:18.139Z,0
2018-02-04T00:03:59.109Z,0
2018-02-04T00:04:40.041Z,0
2018-02-04T00:05:21.826Z,0
2018-02-04T00:06:02.864Z,0
2018-02-04T00:06:44.452Z,0
2018-02-04T00:07:25.730Z,0
2018-02-04T00:08:15.909Z,0
2018-02-04T00:08:58.473Z,0
2018-02-04T00:09:38.886Z,0
2018-02-04T00:10:19.481Z,0
2018-02-04T00:11:00.279Z,0
2018-02-04T00:11:41.371Z,0
2018-02-04T00:12:22.685Z,0
2018-02-04T00:13:05.326Z,0
2018-02-04T00:13:46.136Z,0
2018-02-04T00:14:27.457Z,0
2018-02-04T00:15:08.581Z,0
2018-02-04T00:15:49.750Z,0
2018-02-04T00:16:32.239Z,0
2018-02-04T00:17:13.138Z,0
2018-02-04T00:17:53.810Z,0
2018-02-04T00:18:35.039Z,0
2018-02-04T00:19:16.715Z,0
2018-02-04T00:19:58.183Z,0
2018-02-04T00:22:08.109Z,0
2018-02-04T00:23:02.182Z,0
2018-02-04T00:23:54.887Z,0
2018-02-04T00:24:47.377Z,0
2018-02-04T00:25:41.378Z,0
2018-02-04T00:26:35.568Z,0
2018-02-04T00:27:28.832Z,0
2018-02-04T00:28:22.008Z,0
2018-02-04T00:29:14.418Z,0
2018-02-04T00:30:06.868Z,0
2018-02-04T00:31:00.037Z,0
2018-02-04T00:31:52.490Z,0
2018-02-04T00:32:44.725Z,0
2018-02-04T00:33:37.566Z,0
2018-02-04T00:34:31.450Z,0
2018-02-04T00:35:24.517Z,0
2018-02-04T00:36:25.160Z,0
2018-02-04T00:37:21.050Z,0
2018-02-04T00:38:13.751Z,0
2018-02-04T00:39:14.077Z,0
2018-02-04T00:40:06.975Z,0
2018-02-04T00:40:59.323Z,0
2018-02-04T00:41:51.809Z,0
2018-02-04T00:42:44.775Z,0
2018-02-04T00:43:36.254Z,0
2018-02-04T00:44:29.517Z,0
2018-02-04T00:45:21.796Z,0
2018-02-04T00:46:14.066Z,0
2018-02-04T00:47:06.916Z,0
2018-02-04T00:47:58.748Z,0
2018-02-04T00:48:51.046Z,0
2018-02-04T00:49:42.816Z,0
2018-02-04T00:50:36.222Z,0
2018-02-04T00:51:28.259Z,0
2018-02-04T00:52:21.929Z,0
2018-02-04T00:53:14.539Z,0
2018-02-04T00:54:07.548Z,0
2018-02-04T00:54:59.308Z,0
2018-02-04T00:55:51.761Z,0
2018-02-04T00:56:43.858Z,0
2018-02-04T00:57:36.170Z,0
2018-02-04T00:58:28.055Z,0
2018-02-04T00:59:20.664Z,0
2018-02-04T01:00:13.374Z,0
2018-02-04T01:01:05.872Z,0
2018-02-04T01:01:58.396Z,0
2018-02-04T01:02:50.834Z,0
2018-02-04T01:03:43.427Z,0
2018-02-04T01:04:35.922Z,0
2018-02-04T01:05:28.851Z,0
2018-02-04T01:06:21.148Z,0
2018-02-04T01:07:14.865Z,0
2018-02-04T01:08:07.342Z,0
2018-02-04T01:08:59.685Z,0
2018-02-04T01:09:51.809Z,0
2018-02-04T01:10:44.253Z,0
2018-02-04T01:11:37.885Z,0
2018-02-04T01:12:30.359Z,0
2018-02-04T01:13:22.691Z,0
2018-02-04T01:15:32.966Z,0
2018-02-04T01:16:25.452Z,0
2018-02-04T01:17:17.929Z,0
2018-02-04T01:18:10.362Z,0
2018-02-04T01:19:02.928Z,0
2018-02-04T01:19:55.396Z,0
2018-02-04T01:20:47.873Z,0
2018-02-04T01:21:40.655Z,0
2018-02-04T01:22:33.953Z,0
2018-02-04T01:23:26.473Z,0
2018-02-04T01:24:20.474Z,0
2018-02-04T01:25:15.596Z,0
2018-02-04T01:26:08.297Z,0
2018-02-04T01:27:04.319Z,0
2018-02-04T01:27:57.024Z,0
2018-02-04T01:28:50.556Z,0
2018-02-04T01:29:42.730Z,0
2018-02-04T01:30:40.556Z,0
2018-02-04T01:31:32.912Z,0
2018-02-04T01:32:25.802Z,0
2018-02-04T01:33:19.133Z,0
2018-02-04T01:34:11.315Z,0
2018-02-04T01:35:04.725Z,0
2018-02-04T01:35:57.592Z,0
2018-02-04T01:36:51.807Z,0
2018-02-04T01:37:46.209Z,0
2018-02-04T01:38:38.675Z,0
2018-02-04T01:39:31.267Z,0
2018-02-04T01:40:27.228Z,0
2018-02-04T01:41:19.459Z,0
2018-02-04T01:42:12.357Z,0
2018-02-04T01:43:04.800Z,0
2018-02-04T01:44:00.877Z,0
2018-02-04T01:44:53.354Z,0
2018-02-04T01:45:47.410Z,0
2018-02-04T01:46:39.980Z,0
2018-02-04T01:47:32.348Z,0
2018-02-04T01:48:24.877Z,0
2018-02-04T01:49:17.853Z,0
2018-02-04T01:50:12.529Z,0
2018-02-04T01:51:05.255Z,0
2018-02-04T01:51:57.427Z,0
2018-02-04T01:52:49.748Z,0
2018-02-04T01:53:43.010Z,0
2018-02-04T01:54:37.833Z,0
2018-02-04T01:55:31.402Z,0
2018-02-04T01:59:57.649Z,0
2018-02-04T02:00:45.613Z,0
2018-02-04T02:03:29.186Z,0
2018-02-04T02:04:23.311Z,0
2018-02-04T02:05:15.702Z,0
2018-02-04T02:06:08.684Z,0
2018-02-04T02:07:01.103Z,0
2018-02-04T02:07:53.452Z,0
2018-02-04T02:08:47.760Z,0
2018-02-04T02:09:40.155Z,0
2018-02-04T02:10:34.438Z,0
2018-02-04T02:11:26.757Z,0
2018-02-04T02:12:19.000Z,0
2018-02-04T02:13:11.180Z,0
2018-02-04T02:14:03.295Z,0
2018-02-04T02:14:55.476Z,0
2018-02-04T02:15:48.055Z,0
2018-02-04T02:16:40.141Z,0
2018-02-04T02:17:33.500Z,0
2018-02-04T02:18:25.463Z,0
2018-02-04T02:19:17.245Z,0
2018-02-04T02:20:11.178Z,0
2018-02-04T02:21:03.346Z,0
2018-02-04T02:21:55.496Z,0
2018-02-04T02:22:47.700Z,0
2018-02-04T02:23:41.484Z,0
2018-02-04T02:24:38.657Z,0
2018-02-04T02:25:31.131Z,0
2018-02-04T02:26:23.052Z,0
2018-02-04T02:27:16.065Z,0
2018-02-04T02:28:25.672Z,0
2018-02-04T02:29:19.815Z,0
2018-02-04T02:30:12.233Z,0
2018-02-04T02:31:06.699Z,0
2018-02-04T02:32:01.661Z,0
2018-02-04T02:32:56.258Z,0
2018-02-04T02:35:54.440Z,0
2018-02-04T02:38:01.892Z,0
2018-02-04T02:38:46.916Z,0
2018-02-04T02:39:27.332Z,0
2018-02-04T02:40:09.794Z,0
2018-02-04T02:40:50.866Z,0
2018-02-04T02:41:31.976Z,0
2018-02-04T02:42:12.616Z,0
2018-02-04T02:42:52.867Z,0
2018-02-04T02:43:33.509Z,0
2018-02-04T02:44:13.726Z,0
2018-02-04T02:44:54.118Z,0
2018-02-04T02:45:34.843Z,0
2018-02-04T02:46:16.023Z,0
2018-02-04T02:47:00.745Z,0
2018-02-04T02:47:40.727Z,0
2018-02-04T02:48:21.318Z,0
2018-02-04T02:49:01.783Z,0
2018-02-04T02:49:42.213Z,0
2018-02-04T02:50:22.695Z,0
2018-02-04T02:51:04.806Z,0
2018-02-04T02:51:46.262Z,0
2018-02-04T02:52:26.823Z,0
2018-02-04T02:53:09.608Z,0
2018-02-04T02:53:49.762Z,0
2018-02-04T02:54:30.302Z,0
2018-02-04T02:55:10.788Z,0
2018-02-04T02:55:52.047Z,0
2018-02-04T02:56:32.450Z,0
2018-02-04T02:57:13.286Z,0
2018-02-04T02:57:54.563Z,0
2018-02-04T02:58:35.980Z,0
2018-02-04T02:59:17.600Z,0
2018-02-04T02:59:58.587Z,0
2018-02-04T03:00:39.538Z,0
2018-02-04T03:01:21.347Z,0
2018-02-04T03:02:02.170Z,0
2018-02-04T03:02:43.286Z,0
2018-02-04T03:03:23.741Z,0
2018-02-04T03:04:04.145Z,0
2018-02-04T03:04:44.813Z,0
2018-02-04T03:05:25.710Z,0
2018-02-04T03:07:53.188Z,0
2018-02-04T03:08:40.765Z,0
2018-02-04T03:09:25.518Z,0
2018-02-04T03:10:08.185Z,0
2018-02-04T03:10:48.928Z,0
2018-02-04T03:11:29.885Z,0
2018-02-04T03:12:10.835Z,0
2018-02-04T03:12:51.854Z,0
2018-02-04T03:13:32.782Z,0
2018-02-04T03:14:13.499Z,0
2018-02-04T03:14:54.212Z,0
2018-02-04T03:15:36.539Z,0
2018-02-04T03:16:16.895Z,0
2018-02-04T03:16:59.236Z,0
2018-02-04T03:17:40.060Z,0
2018-02-04T03:18:21.761Z,0
2018-02-04T03:19:02.853Z,0
2018-02-04T03:19:44.055Z,0
2018-02-04T03:20:24.446Z,0
2018-02-04T03:21:04.865Z,0
2018-02-04T03:21:45.235Z,0
2018-02-04T03:22:25.668Z,0
2018-02-04T03:23:08.228Z,0
2018-02-04T03:23:48.377Z,0
2018-02-04T03:24:30.908Z,0
2018-02-04T03:30:58.123Z,0
2018-02-04T03:31:49.902Z,0
2018-02-04T03:32:36.284Z,0
2018-02-04T03:33:27.899Z,0
2018-02-04T03:34:21.019Z,0
2018-02-04T03:35:13.929Z,0
2018-02-04T03:36:03.549Z,0
2018-02-04T03:36:55.522Z,0
2018-02-04T03:37:44.462Z,0
2018-02-04T03:38:33.963Z,0
2018-02-04T03:39:22.182Z,0
2018-02-04T03:40:13.074Z,0
2018-02-04T03:41:03.610Z,0
2018-02-04T03:41:45.043Z,0
2018-02-04T03:42:25.360Z,0
2018-02-04T03:43:06.494Z,0
2018-02-04T03:43:47.678Z,0
2018-02-04T03:44:29.950Z,0
2018-02-04T03:45:10.553Z,0
2018-02-04T03:45:51.718Z,0
2018-02-04T03:46:32.469Z,0
2018-02-04T03:47:13.557Z,0
2018-02-04T03:47:53.734Z,0
2018-02-04T03:48:36.228Z,0
2018-02-04T03:49:17.312Z,0
2018-02-04T03:49:58.736Z,0
2018-02-04T03:50:38.724Z,0
2018-02-04T03:51:25.163Z,0
2018-02-04T03:52:06.839Z,0
2018-02-04T03:52:48.731Z,0
2018-02-04T03:53:29.503Z,0
2018-02-04T03:56:06.976Z,0
2018-02-04T03:56:56.475Z,0
2018-02-04T03:57:45.001Z,0
2018-02-04T03:58:34.067Z,0
2018-02-04T03:59:27.884Z,0
2018-02-04T04:00:14.615Z,0
2018-02-04T04:01:06.117Z,0
2018-02-04T04:01:57.909Z,0
2018-02-04T04:45:50.416Z,0
2018-02-04T04:46:43.517Z,0
2018-02-04T04:47:36.506Z,0
2018-02-04T04:48:29.048Z,0
2018-02-04T04:49:21.747Z,0
2018-02-04T04:50:15.222Z,0
2018-02-04T04:51:07.583Z,0
2018-02-04T04:52:00.548Z,0
2018-02-04T04:52:52.051Z,0
2018-02-04T04:53:46.584Z,0
2018-02-04T04:54:39.890Z,0
2018-02-04T04:55:32.257Z,0
2018-02-04T04:56:25.148Z,0
2018-02-04T04:57:17.553Z,0
2018-02-04T04:58:10.336Z,0
2018-02-04T04:59:02.502Z,0
2018-02-04T04:59:55.048Z,0
2018-02-04T05:00:47.579Z,0
2018-02-04T05:01:40.069Z,0
2018-02-04T05:02:33.045Z,0
2018-02-04T05:03:25.466Z,0
2018-02-04T05:04:18.280Z,0
2018-02-04T05:05:10.771Z,0
2018-02-04T05:06:03.145Z,0
2018-02-04T05:06:56.377Z,0
2018-02-04T05:07:48.041Z,0
2018-02-04T05:08:41.587Z,0
2018-02-04T05:09:34.245Z,0
2018-02-04T05:10:41.294Z,0
2018-02-04T05:11:33.727Z,0
2018-02-04T05:12:26.933Z,0
2018-02-04T05:13:19.602Z,0
2018-02-04T05:14:11.786Z,0
2018-02-04T05:15:03.714Z,0
2018-02-04T05:15:58.151Z,0
2018-02-04T05:16:50.088Z,0
2018-02-04T05:17:42.657Z,0
2018-02-04T05:18:36.029Z,0
2018-02-04T05:19:29.486Z,0
2018-02-04T05:20:21.615Z,0
2018-02-04T05:21:13.928Z,0
2018-02-04T05:22:05.992Z,0
2018-02-04T05:22:59.161Z,0
2018-02-04T05:23:51.549Z,0
2018-02-04T05:24:43.840Z,0
2018-02-04T05:25:35.817Z,0
2018-02-04T05:26:29.986Z,0
2018-02-04T05:27:22.531Z,0
2018-02-04T05:28:16.255Z,0
2018-02-04T05:29:08.457Z,0
2018-02-04T05:30:01.547Z,0
2018-02-04T05:30:54.690Z,0
2018-02-04T05:31:47.283Z,0
2018-02-04T05:32:43.102Z,0
2018-02-04T05:33:37.151Z,0
2018-02-04T05:34:29.608Z,0
2018-02-04T05:35:22.039Z,0
2018-02-04T05:36:14.636Z,0
2018-02-04T05:37:09.189Z,0
2018-02-04T05:38:03.647Z,0
2018-02-04T05:38:56.563Z,0
2018-02-04T05:39:48.562Z,0
2018-02-04T05:40:42.131Z,0
2018-02-04T05:41:34.003Z,0
2018-02-04T05:42:27.034Z,0
2018-02-04T05:43:19.522Z,0
2018-02-04T05:44:11.739Z,0
2018-02-04T05:45:03.874Z,0
2018-02-04T05:45:56.106Z,0
2018-02-04T05:46:49.318Z,0
2018-02-04T05:47:41.089Z,0
2018-02-04T05:48:33.507Z,0
2018-02-04T05:49:26.006Z,0
2018-02-04T05:50:17.889Z,0
2018-02-04T05:51:11.669Z,0
2018-02-04T05:52:03.718Z,0
2018-02-04T05:52:57.087Z,0
2018-02-04T05:53:49.157Z,0
2018-02-04T05:54:41.595Z,0
2018-02-04T05:55:33.837Z,0
2018-02-04T05:56:27.185Z,0
2018-02-04T05:57:19.460Z,0
2018-02-04T05:58:12.112Z,0
2018-02-04T05:59:05.928Z,0
2018-02-04T05:59:58.337Z,0
2018-02-04T06:00:51.467Z,0
2018-02-04T06:01:44.013Z,0
2018-02-04T06:02:36.630Z,0
2018-02-04T06:03:29.951Z,0
2018-02-04T06:04:22.651Z,0
2018-02-04T06:05:14.953Z,0
2018-02-04T06:06:07.021Z,0
2018-02-04T06:07:01.016Z,0
2018-02-04T06:07:53.535Z,0
2018-02-04T06:08:48.675Z,0
2018-02-04T06:09:40.994Z,0
2018-02-04T06:10:33.094Z,0
2018-02-04T06:11:24.965Z,0
2018-02-04T06:12:17.339Z,0
2018-02-04T06:13:10.901Z,0
2018-02-04T06:14:03.082Z,0
2018-02-04T06:14:55.578Z,0
2018-02-04T06:15:47.889Z,0
2018-02-04T06:16:40.142Z,0
2018-02-04T06:17:32.387Z,0
2018-02-04T06:18:25.209Z,0
2018-02-04T06:19:20.212Z,0
2018-02-04T06:20:12.912Z,0
2018-02-04T06:21:04.734Z,0
2018-02-04T06:21:56.701Z,0
2018-02-04T06:22:49.843Z,0
2018-02-04T06:23:42.049Z,0
2018-02-04T06:24:34.528Z,0
2018-02-04T06:25:26.888Z,0
2018-02-04T06:26:19.838Z,0
2018-02-04T06:27:12.418Z,0
2018-02-04T06:27:52.573Z,0
2018-02-04T06:28:33.572Z,0
2018-02-04T06:29:14.002Z,0
2018-02-04T06:29:55.037Z,0
2018-02-04T06:30:36.526Z,0
2018-02-04T06:34:45.040Z,0
2018-02-04T06:35:36.756Z,0
2018-02-04T06:36:29.169Z,0
2018-02-04T06:37:23.828Z,0
2018-02-04T06:38:15.656Z,0
2018-02-04T06:39:08.273Z,0
2018-02-04T06:40:00.209Z,0
2018-02-04T06:40:52.889Z,0
2018-02-04T06:41:47.019Z,0
2018-02-04T06:42:46.608Z,4
2018-02-04T06:43:39.089Z,4
2018-02-04T06:44:31.191Z,4
2018-02-04T06:45:23.671Z,0
2018-02-04T06:46:16.021Z,0
2018-02-04T06:47:08.340Z,4
2018-02-04T06:48:00.317Z,4
2018-02-04T06:48:52.468Z,0
2018-02-04T06:49:47.239Z,4
2018-02-04T06:50:39.320Z,4
2018-02-04T06:51:31.653Z,4
2018-02-04T06:52:23.676Z,4
2018-02-04T06:54:57.917Z,8
2018-02-04T06:55:50.439Z,4
2018-02-04T06:56:42.683Z,8
2018-02-04T06:57:44.648Z,8
2018-02-04T06:58:46.820Z,12
2018-02-04T06:59:41.886Z,12
2018-02-04T07:00:45.329Z,12
2018-02-04T07:56:02.074Z,72
2018-02-04T07:56:59.791Z,72
2018-02-04T07:57:52.973Z,76
2018-02-04T07:58:57.349Z,76
2018-02-04T07:59:58.477Z,80
2018-02-04T08:17:10.879Z,132
2018-02-04T08:18:02.516Z,136
2018-02-04T08:22:10.222Z,144
2018-02-04T08:26:00.391Z,160
2018-02-04T09:12:55.145Z,1140
2018-02-04T09:13:46.865Z,1088
2018-02-04T09:17:47.828Z,980
2018-02-04T09:18:38.910Z,1384
2018-02-04T09:19:26.792Z,1424
2018-02-04T09:20:19.171Z,1476
2018-02-04T09:23:12.550Z,1580
2018-02-04T09:29:30.662Z,1244
2018-02-04T10:46:58.172Z,492
2018-02-04T10:47:51.033Z,464
2018-02-04T10:49:41.564Z,464
2018-02-04T11:03:33.782Z,296
2018-02-04T11:04:23.466Z,292
2018-02-04T11:05:16.838Z,296
2018-02-04T11:11:26.100Z,452
2018-02-04T11:15:12.123Z,568
2018-02-04T11:17:17.206Z,496
2018-02-04T11:18:04.798Z,492
2018-02-04T11:18:51.705Z,492
2018-02-04T11:19:39.440Z,492
2018-02-04T11:20:27.581Z,496
2018-02-04T11:21:21.933Z,512
2018-02-04T11:24:46.572Z,712
2018-02-04T11:25:39.519Z,764
2018-02-04T11:40:46.839Z,1324
2018-02-04T11:41:35.851Z,1296
2018-02-04T11:42:24.006Z,1260
2018-02-04T11:43:14.572Z,1152
2018-02-04T11:48:50.687Z,776
2018-02-04T11:49:44.436Z,744
2018-02-04T11:52:12.302Z,840
2018-02-04T11:53:03.756Z,888
2018-02-04T11:55:48.505Z,876
2018-02-04T11:56:37.212Z,812
2018-02-04T11:57:28.072Z,692
2018-02-04T11:59:33.745Z,548
2018-02-04T12:00:24.030Z,520
2018-02-04T12:01:11.845Z,528
2018-02-04T12:02:04.627Z,556
2018-02-04T12:02:53.877Z,544
2018-02-04T12:03:46.461Z,536
2018-02-04T12:08:15.965Z,440
2018-02-04T12:09:07.143Z,440
2018-02-04T12:23:27.663Z,404
2018-02-04T12:28:24.774Z,432
2018-02-04T12:29:13.038Z,436
2018-02-04T12:30:01.641Z,424
2018-02-04T12:30:50.651Z,400
2018-02-04T12:31:43.280Z,376
2018-02-04T12:32:39.838Z,384
2018-02-04T12:35:16.505Z,400
2018-02-04T12:36:05.614Z,388
2018-02-04T12:47:31.848Z,768
2018-02-04T12:53:42.358Z,628
2018-02-04T12:59:15.102Z,676
2018-02-04T13:21:41.404Z,1036
2018-02-04T13:23:39.569Z,1008
2018-02-04T13:45:29.714Z,864
2018-02-04T14:24:06.144Z,540
2018-02-04T14:26:44.312Z,556
2018-02-04T14:27:36.953Z,544
2018-02-04T14:28:29.440Z,544
2018-02-04T14:29:21.658Z,532
2018-02-04T14:30:09.135Z,516
2018-02-04T14:30:50.486Z,480
2018-02-04T14:31:31.164Z,452
2018-02-04T14:32:15.951Z,424
2018-02-04T14:34:25.654Z,400
2018-02-04T14:35:07.493Z,420
2018-02-04T14:35:47.872Z,444
2018-02-04T14:36:28.406Z,472
2018-02-04T14:37:09.533Z,500
2018-02-04T14:37:49.923Z,528
2018-02-04T14:38:34.008Z,556
2018-02-04T14:39:15.346Z,556
2018-02-04T14:39:55.751Z,564
2018-02-04T14:40:36.478Z,572
2018-02-04T14:41:17.397Z,584
2018-02-04T14:41:57.788Z,604
2018-02-04T14:42:38.104Z,608
2018-02-04T14:43:18.733Z,592
2018-02-04T14:43:59.890Z,600
2018-02-04T14:44:40.779Z,612
2018-02-04T14:45:21.491Z,616
2018-02-04T14:46:01.863Z,612
2018-02-04T14:46:43.694Z,612
2018-02-04T14:47:26.717Z,616
2018-02-04T14:48:07.579Z,620
2018-02-04T14:48:48.491Z,612
2018-02-04T14:49:30.947Z,600
2018-02-04T14:50:14.419Z,600
2018-02-04T14:50:56.049Z,608
2018-02-04T14:53:25.889Z,708
2018-02-04T14:54:18.327Z,704
2018-02-04T14:55:10.292Z,652
2018-02-04T14:56:03.242Z,632
2018-02-04T14:56:55.650Z,644
2018-02-04T14:57:48.318Z,648
2018-02-04T14:58:46.710Z,652
2018-02-04T14:59:39.128Z,628
2018-02-04T15:00:31.327Z,616
2018-02-04T15:02:43.943Z,576
2018-02-04T15:11:40.089Z,452
2018-02-04T15:12:33.091Z,452
2018-02-04T15:13:25.319Z,436
2018-02-04T15:14:17.256Z,412
2018-02-04T15:15:09.362Z,400
2018-02-04T15:16:02.190Z,392
2018-02-04T15:16:55.044Z,392
2018-02-04T15:17:47.184Z,424
2018-02-04T15:18:45.556Z,416
2018-02-04T15:22:50.933Z,432
2018-02-04T15:23:39.210Z,440
2018-02-04T15:24:29.433Z,484
2018-02-04T15:25:18.769Z,604
2018-02-04T15:26:00.189Z,696
2018-02-04T15:26:40.981Z,680
2018-02-04T15:27:21.657Z,600
2018-02-04T15:28:04.219Z,484
2018-02-04T15:28:45.683Z,436
2018-02-04T15:29:27.283Z,420
2018-02-04T15:30:08.113Z,404
2018-02-04T15:30:50.187Z,380
2018-02-04T15:35:05.639Z,328
2018-02-04T15:35:58.958Z,328
2018-02-04T15:36:55.470Z,328
2018-02-04T15:37:47.778Z,316
2018-02-04T15:38:40.684Z,300
2018-02-04T15:42:36.852Z,268
2018-02-04T15:43:26.495Z,260
2018-02-04T15:48:10.756Z,204
2018-02-04T15:50:31.874Z,176
2018-02-04T15:51:18.980Z,168
2018-02-04T15:53:28.894Z,148
2018-02-04T15:57:26.771Z,120
2018-02-04T15:58:19.359Z,120
2018-02-04T15:59:11.871Z,112
2018-02-04T16:01:43.463Z,100
2018-02-04T16:02:28.124Z,96
2018-02-04T16:03:08.754Z,100
2018-02-04T16:03:49.698Z,96
2018-02-04T16:43:57.372Z,8
2018-02-04T16:44:55.690Z,4
2018-02-04T16:45:48.884Z,4
2018-02-04T16:46:41.316Z,4
2018-02-04T16:47:33.904Z,4
2018-02-04T16:48:25.734Z,0
2018-02-04T16:49:20.648Z,4
2018-02-04T16:50:26.178Z,0
2018-02-04T17:33:11.197Z,0
2018-02-04T17:34:03.795Z,0
2018-02-04T17:34:56.544Z,0
2018-02-04T17:35:49.354Z,0
2018-02-04T17:36:41.909Z,0
2018-02-04T17:37:34.812Z,0
2018-02-04T17:38:26.724Z,0
2018-02-04T17:39:19.307Z,0
2018-02-04T17:40:11.791Z,0
2018-02-04T17:42:52.357Z,0
2018-02-04T17:43:49.056Z,0
2018-02-04T17:44:41.796Z,0
2018-02-04T17:45:34.016Z,0
2018-02-04T17:46:27.477Z,0
2018-02-04T17:47:21.601Z,0
2018-02-04T17:48:13.454Z,0
2018-02-04T17:49:06.405Z,0
2018-02-04T17:49:58.911Z,0
2018-02-04T17:50:51.052Z,0
2018-02-04T17:51:43.640Z,0
2018-02-04T17:52:37.061Z,0
2018-02-04T17:53:30.658Z,0
2018-02-04T17:54:23.332Z,0
2018-02-04T17:55:16.648Z,0
2018-02-04T17:56:08.543Z,0
2018-02-04T17:57:01.331Z,0
2018-02-04T17:57:54.707Z,0
2018-02-04T17:58:48.899Z,0
2018-02-04T17:59:42.035Z,0
2018-02-04T18:00:36.607Z,0
2018-02-04T18:01:29.750Z,0
2018-02-04T18:02:35.992Z,0
2018-02-04T18:03:28.552Z,0
2018-02-04T18:04:21.010Z,0
2018-02-04T18:29:23.609Z,0
2018-02-04T18:30:17.036Z,0
2018-02-04T18:31:11.556Z,0
2018-02-04T18:32:03.835Z,0
2018-02-04T18:45:15.734Z,0
2018-02-04T18:46:27.327Z,0
2018-02-04T18:47:20.275Z,0
2018-02-04T18:51:35.674Z,0
2018-02-04T18:52:45.499Z,0
2018-02-04T18:59:13.502Z,0
2018-02-04T19:08:31.018Z,0
2018-02-04T19:10:55.102Z,0
2018-02-04T19:21:10.792Z,0
2018-02-04T19:21:59.787Z,0
2018-02-04T19:22:49.665Z,0
2018-02-04T19:23:38.424Z,0
2018-02-04T19:24:26.527Z,0
2018-02-04T19:26:05.645Z,0
2018-02-04T19:26:54.223Z,0
2018-02-04T19:27:42.816Z,0
2018-02-04T19:28:31.565Z,0
2018-02-04T19:29:34.980Z,0
2018-02-04T19:32:59.201Z,0
2018-02-04T19:49:57.731Z,0
2018-02-04T19:50:45.945Z,0
2018-02-04T19:51:35.290Z,0
2018-02-04T19:52:22.942Z,0
2018-02-04T19:53:11.521Z,0
2018-02-04T19:53:59.875Z,0
2018-02-04T19:54:51.161Z,0
2018-02-04T19:55:40.293Z,0
2018-02-04T19:56:30.939Z,0
2018-02-04T19:57:22.545Z,0
2018-02-04T19:58:10.691Z,0
2018-02-04T20:00:51.034Z,0
2018-02-04T20:01:44.380Z,0
2018-02-04T20:02:30.670Z,0
2018-02-04T20:03:25.846Z,0
2018-02-04T20:20:12.204Z,0
2018-02-04T20:21:13.106Z,0
2018-02-04T20:40:23.364Z,0
2018-02-04T20:43:16.841Z,0
2018-02-04T20:53:04.648Z,0
2018-02-04T20:53:57.672Z,0
2018-02-04T20:56:53.431Z,0
2018-02-04T20:57:44.808Z,0
2018-02-04T20:58:55.163Z,0
2018-02-04T21:04:29.080Z,0
2018-02-04T21:05:18.330Z,0
2018-02-04T21:06:06.719Z,0
2018-02-04T21:06:55.729Z,0
2018-02-04T21:07:44.654Z,0
2018-02-04T21:08:36.073Z,0
2018-02-04T21:09:24.669Z,0
2018-02-04T21:10:16.731Z,0
2018-02-04T21:11:03.281Z,0
2018-02-04T21:11:54.087Z,0
2018-02-04T21:16:36.692Z,0
2018-02-04T21:17:27.949Z,0
2018-02-04T21:18:17.225Z,0
2018-02-04T21:36:03.187Z,0
2018-02-04T21:39:52.893Z,0
2018-02-04T21:41:55.343Z,0
2018-02-04T21:48:08.274Z,0
2018-02-04T21:48:58.286Z,0
2018-02-04T21:49:57.595Z,0
2018-02-04T22:00:01.046Z,0
2018-02-04T22:00:49.830Z,0
2018-02-04T22:01:39.700Z,0
2018-02-04T22:42:04.001Z,0
2018-02-04T22:42:56.710Z,0
2018-02-04T22:45:39.492Z,0
2018-02-04T22:46:17.195Z,0
2018-02-04T22:46:59.089Z,0
2018-02-04T22:47:40.909Z,0
2018-02-04T22:48:24.315Z,0
2018-02-04T22:49:05.609Z,0
2018-02-04T22:49:46.884Z,0
2018-02-04T22:50:27.041Z,0
2018-02-04T22:51:08.262Z,0
2018-02-04T22:51:50.192Z,0
2018-02-04T22:52:31.312Z,0
2018-02-04T22:53:11.813Z,0
2018-02-04T22:53:53.922Z,0
2018-02-04T22:54:37.897Z,0
2018-02-04T22:55:20.362Z,0
2018-02-04T22:56:04.444Z,0
2018-02-04T22:56:48.518Z,0
2018-02-04T22:57:28.909Z,0
2018-02-04T22:58:13.684Z,0
2018-02-04T22:58:57.077Z,0
2018-02-04T22:59:39.499Z,0
2018-02-04T23:00:19.449Z,0
2018-02-04T23:01:00.111Z,0
2018-02-04T23:01:43.258Z,0
2018-02-04T23:02:25.767Z,0
2018-02-04T23:03:07.437Z,0
2018-02-04T23:03:50.034Z,0
2018-02-04T23:04:33.722Z,0
2018-02-04T23:05:14.921Z,0
2018-02-04T23:05:56.877Z,0
2018-02-04T23:06:37.987Z,0
2018-02-04T23:07:18.712Z,0
2018-02-04T23:07:59.531Z,0
2018-02-04T23:08:40.371Z,0
2018-02-04T23:09:21.027Z,0
2018-02-04T23:10:01.458Z,0
2018-02-04T23:10:43.445Z,0
2018-02-04T23:11:24.295Z,0
2018-02-04T23:12:06.689Z,0
2018-02-04T23:49:13.254Z,0
2018-02-04T23:50:04.745Z,0
2018-02-04T23:52:46.728Z,0
2018-02-04T23:53:38.642Z,0
2018-02-04T23:54:26.530Z,0
2018-02-04T23:55:18.771Z,0
2018-02-04T23:56:12.591Z,0
2018-02-04T23:57:01.087Z,0
2018-02-04T23:57:52.486Z,0
2018-02-04T23:58:40.370Z,0
2018-02-04T23:59:42.989Z,0
